Aérodrome :
LOGIN :

S'inscrire | Disclaimer

   EN    FR    IT 

 










Légende :    VFR   VFR Marginal   IFR   IFR Intensif   IFR Très Intensif
Visi : 
Plafond : 
>= 8 km
>= 3000ft
5 à 8 km
1000 à 3000 ft
1500m à 5 km
500 à 1000 ft
800 à 1500m
200 à 500 ft
< 800m
< 200 ft
Symboles :   Orages  Brouillard  Fortes neiges  Fortes précipitations  Vent > 20 kt
SIGMETs :   Divers  Orages  Givrage  Turbulence  Onde Orograph.  Cendres Volcan.







- Altitude de l'aérodrome : 386 ft
- Code IATA : QOE


ETNN - Nörvenich Airforce Base

DERNIER METAR :
  • 131820Z 21008KT 9999 FEW030 BKN070 BKN110 05/02 Q0994 BLU BLU TEMPO GRN

METARs EXPIRÉS :
  • 131720Z 21005KT 9999 BKN040 04/02 Q0996 BLU BLU TEMPO GRN
  • 131620Z 22006KT 9999 SCT040 SCT050 BKN070 04/01 Q0998 BLU BLU TEMPO GRN

TAF TAF ETNN
Valide du 13 à 18h jusqu'au 14 à 03h UTC


131707Z 1318/1403 21008KT 8000 NSW FEW020 BKN040
TEMPO 1318/1321 23015G30KT 4000 RA SCT012 BKN020
BECMG 1321/1323 25012G22KT 9999 NSW FEW020 BKN040
TEMPO 1321/1403 27020G35KT 4000 SHRASN BKN012TCU
PROB30 1401/1403 28025G40KT 2000 TSGS BKN010CB BY ETGL
Pas de NOTAMs connus pour ce terrain.



MET'MAP, la Météo Aéronautique d'un coup d'oeil ! - Copyright ORBIFLY Décembre 2007 - Disclaimer

ORBIFLY MET'MAP TEAM :

Programmation & Développement : Alexandra Zaïnal
Conception & Développement : Baudouin d'Aumeries
Co-Programmation & Développement : Marc-Olivier Méhu
Soutien technique & logistique : Manuel Goepfert

Contact : metmap@orbifly.com




SOURCES & CREDITS :

   NOAA